Time;durP1;ratioP1;P1;durP2;ratioP2;P2;SDS_P1;SDS_P2;PMS_P1;PMS_P2;Temp;Humidity;BMP_temperature;BMP_pressure;BME280_temperature;BME280_humidity;BME280_pressure;Samples;Min_cycle;Max_cycle;Signal;HPM_P1;HPM_P2
2022/08/24 00:00:20;;;;;;;10.95;4.67;;;;;;;22.21;47.27;99835.41;1800152;79;21000;-75
2022/08/24 00:02:48;;;;;;;6.15;4.33;;;;;;;22.18;47.22;99844.52;1800165;79;21082;-75
2022/08/24 00:05:16;;;;;;;12.82;3.87;;;;;;;22.16;47.24;99842.45;1800262;79;21519;-75
2022/08/24 00:07:44;;;;;;;9.83;4.12;;;;;;;22.12;47.24;99850.34;1801238;79;21095;-75
2022/08/24 00:10:12;;;;;;;8.88;4.00;;;;;;;22.10;47.20;99852.30;1815162;79;21592;-75
2022/08/24 00:12:39;;;;;;;8.30;3.70;;;;;;;22.07;47.25;99853.88;1815230;79;21073;-75
2022/08/24 00:15:07;;;;;;;9.30;3.92;;;;;;;22.04;47.24;99852.77;1815502;79;21053;-74
2022/08/24 00:17:34;;;;;;;6.65;3.60;;;;;;;22.01;47.28;99851.69;1815429;79;22031;-74
2022/08/24 00:20:01;;;;;;;9.25;3.75;;;;;;;21.98;47.31;99855.94;1815501;79;21108;-74
2022/08/24 00:22:27;;;;;;;5.87;3.65;;;;;;;21.95;47.30;99862.37;1815107;79;21018;-75
2022/08/24 00:24:55;;;;;;;14.58;4.25;;;;;;;21.92;47.39;99861.75;1815389;79;20986;-75
2022/08/24 00:27:21;;;;;;;14.30;3.55;;;;;;;21.88;47.39;99861.98;1815336;79;21038;-75
2022/08/24 00:29:48;;;;;;;9.85;3.98;;;;;;;21.84;47.47;99859.67;1815392;79;21700;-75
2022/08/24 00:32:16;;;;;;;7.40;3.67;;;;;;;21.81;47.55;99871.47;1815273;79;21033;-74
2022/08/24 00:34:43;;;;;;;15.83;4.37;;;;;;;21.77;47.52;99872.69;1815341;78;22324;-76
2022/08/24 00:37:10;;;;;;;5.83;3.85;;;;;;;21.75;47.51;99871.92;1789224;80;20971;-75
2022/08/24 00:39:37;;;;;;;7.53;3.90;;;;;;;21.71;47.41;99873.13;1812568;79;20979;-75
2022/08/24 00:42:04;;;;;;;9.93;3.98;;;;;;;21.68;47.43;99872.02;1784413;80;21769;-75
2022/08/24 00:44:31;;;;;;;9.63;4.03;;;;;;;21.67;47.33;99877.00;1812566;79;21076;-75
2022/08/24 00:47:09;;;;;;;5.92;3.65;;;;;;;21.63;47.32;99872.85;1729167;80;21114;-75
2022/08/24 00:50:00;;;;;;;7.05;3.42;;;;;;;21.60;47.26;99871.73;1810703;79;21017;-75
2022/08/24 00:52:37;;;;;;;10.68;3.75;;;;;;;21.57;47.38;99875.98;1784522;80;21122;-75
2022/08/24 00:55:16;;;;;;;8.43;3.62;;;;;;;21.52;47.43;99873.67;1812871;79;21074;-75
2022/08/24 00:57:44;;;;;;;6.60;3.58;;;;;;;21.49;47.31;99868.54;1784322;80;21110;-75
2022/08/24 01:00:19;;;;;;;18.07;4.30;;;;;;;21.47;47.26;99867.31;1812429;79;21034;-75
2022/08/24 01:02:50;;;;;;;7.45;3.60;;;;;;;21.44;47.28;99872.86;1813001;78;21026;-74
2022/08/24 01:05:17;;;;;;;7.58;3.30;;;;;;;21.41;47.18;99874.42;1812768;79;21164;-75
2022/08/24 01:07:45;;;;;;;10.32;4.30;;;;;;;21.38;47.21;99871.96;1782218;80;21104;-75
2022/08/24 01:10:15;;;;;;;11.48;3.72;;;;;;;21.35;47.29;99872.22;1773314;80;21471;-74
2022/08/24 01:12:45;;;;;;;9.00;3.98;;;;;;;21.32;47.36;99869.77;1803613;79;21031;-75
2022/08/24 01:15:11;;;;;;;7.90;3.85;;;;;;;21.30;47.27;99868.99;1803361;79;21086;-75
2022/08/24 01:20:25;;;;;;;7.95;3.87;;;;;;;21.24;47.13;99874.82;1803219;79;21165;-75
2022/08/24 01:23:09;;;;;;;5.50;3.35;;;;;;;21.20;47.12;99878.67;1803082;79;21130;-75
2022/08/24 01:25:37;;;;;;;5.60;3.40;;;;;;;21.14;47.15;99880.83;1803780;79;21066;-74
2022/08/24 01:28:07;;;;;;;10.38;3.92;;;;;;;21.11;47.18;99877.03;1803234;79;21078;-75
2022/08/24 01:30:35;;;;;;;8.95;3.98;;;;;;;21.07;47.25;99876.05;1803470;79;20987;-75
2022/08/24 01:33:06;;;;;;;5.37;3.50;;;;;;;21.04;47.39;99877.12;1803022;79;21091;-75
2022/08/24 01:35:34;;;;;;;11.65;3.60;;;;;;;21.00;47.50;99882.33;1803379;79;21641;-75
2022/08/24 01:38:03;;;;;;;6.03;3.58;;;;;;;20.97;47.60;99888.74;1807438;79;21149;-75
2022/08/24 01:40:37;;;;;;;8.28;3.62;;;;;;;20.95;47.54;99887.16;1808918;79;21027;-75
2022/08/24 01:43:05;;;;;;;5.92;4.03;;;;;;;20.92;47.37;99888.22;1809094;79;21487;-75
2022/08/24 01:45:33;;;;;;;9.58;3.62;;;;;;;20.91;47.36;99886.99;1808652;79;21965;-75
2022/08/24 01:48:01;;;;;;;5.12;3.42;;;;;;;20.88;47.40;99887.20;1809083;79;20986;-75
2022/08/24 01:50:28;;;;;;;6.95;4.00;;;;;;;20.86;47.40;99896.67;1808964;79;21096;-75
2022/08/24 01:52:57;;;;;;;8.08;3.65;;;;;;;20.85;47.47;99894.14;1809317;79;21008;-75
2022/08/24 01:55:25;;;;;;;5.65;3.83;;;;;;;20.81;47.59;99894.81;1809140;79;20968;-75
2022/08/24 01:57:51;;;;;;;8.40;3.67;;;;;;;20.80;47.64;99894.95;1809099;79;21199;-74
2022/08/24 02:00:18;;;;;;;7.45;3.90;;;;;;;20.76;47.72;99900.52;1808941;79;21051;-75
2022/08/24 02:02:45;;;;;;;7.30;4.10;;;;;;;20.73;47.72;99900.72;1808809;79;21027;-75
2022/08/24 02:05:12;;;;;;;6.50;3.70;;;;;;;20.71;47.68;99902.66;1809140;79;21082;-74
2022/08/24 02:07:40;;;;;;;9.40;4.20;;;;;;;20.69;47.69;99910.40;1808578;79;21039;-75
2022/08/24 02:10:10;;;;;;;7.75;3.90;;;;;;;20.67;47.62;99903.81;1819744;78;21084;-75
2022/08/24 02:12:39;;;;;;;8.20;3.87;;;;;;;20.66;47.67;99904.80;1821234;78;21010;-75
2022/08/24 02:15:08;;;;;;;11.18;4.20;;;;;;;20.64;47.61;99906.70;1821494;78;21520;-75
2022/08/24 02:17:35;;;;;;;7.25;4.00;;;;;;;20.62;47.64;99897.91;1821223;78;21081;-75
2022/08/24 02:20:04;;;;;;;10.68;3.98;;;;;;;20.60;47.61;99901.19;1821119;78;21017;-75
2022/08/24 02:22:31;;;;;;;4.95;3.72;;;;;;;20.57;47.59;99901.39;1821512;78;21112;-75
2022/08/24 02:24:58;;;;;;;5.67;4.42;;;;;;;20.54;47.72;99901.60;1821236;78;21073;-75
2022/08/24 02:27:24;;;;;;;8.13;3.92;;;;;;;20.51;47.63;99897.80;1821464;78;20950;-75
2022/08/24 02:29:52;;;;;;;5.92;3.55;;;;;;;20.49;47.58;99897.06;1821159;78;21481;-75
2022/08/24 02:32:19;;;;;;;8.40;4.03;;;;;;;20.46;47.57;99894.59;1821065;78;21632;-75
2022/08/24 02:34:46;;;;;;;8.55;4.65;;;;;;;20.40;47.55;99896.73;1820846;78;21928;-75
2022/08/24 02:37:12;;;;;;;7.20;4.03;;;;;;;20.37;47.61;99892.94;1820926;78;21120;-75
2022/08/24 02:39:39;;;;;;;6.95;4.45;;;;;;;20.34;47.63;99894.97;1784128;80;21031;-74
2022/08/24 02:42:07;;;;;;;7.00;4.05;;;;;;;20.32;47.62;99895.56;1812622;79;21030;-75
2022/08/24 02:44:34;;;;;;;7.35;4.20;;;;;;;20.31;47.68;99896.51;1753814;80;21003;-75
2022/08/24 02:47:01;;;;;;;9.20;4.12;;;;;;;20.28;47.75;99894.92;1812610;79;21083;-75
2022/08/24 02:49:28;;;;;;;9.03;4.03;;;;;;;20.26;47.83;99895.52;1753559;80;21177;-75
2022/08/24 02:51:54;;;;;;;9.03;3.80;;;;;;;20.24;47.85;99893.44;1812529;79;21867;-75
2022/08/24 02:54:21;;;;;;;4.08;3.67;;;;;;;20.23;47.78;99898.39;1783960;80;21122;-75
2022/08/24 02:56:50;;;;;;;12.33;4.30;;;;;;;20.23;47.72;99894.38;1812375;78;21462;-76
2022/08/24 02:59:17;;;;;;;8.63;3.70;;;;;;;20.22;47.86;99896.67;1784102;80;21140;-75
2022/08/24 03:01:44;;;;;;;6.08;3.80;;;;;;;20.18;47.89;99903.20;1812684;79;21038;-75
2022/08/24 03:04:11;;;;;;;9.88;3.70;;;;;;;20.15;47.85;99903.41;1784017;80;21012;-74
2022/08/24 03:06:38;;;;;;;8.00;3.80;;;;;;;20.14;47.91;99904.35;1812319;79;21034;-75
2022/08/24 03:09:04;;;;;;;7.15;3.85;;;;;;;20.11;47.95;99905.92;1750235;80;22183;-75
2022/08/24 03:11:31;;;;;;;7.92;4.03;;;;;;;20.10;48.00;99912.21;1751889;80;21225;-75
2022/08/24 03:13:58;;;;;;;6.83;3.92;;;;;;;20.07;47.97;99917.76;1752031;80;21025;-75
2022/08/24 03:16:27;;;;;;;7.78;3.80;;;;;;;20.04;48.05;99917.02;1779598;80;21052;-75
2022/08/24 03:18:54;;;;;;;6.87;3.67;;;;;;;20.04;48.13;99908.16;1779956;80;21064;-74
2022/08/24 03:21:21;;;;;;;4.30;3.90;;;;;;;20.01;48.24;99916.37;1779738;80;21087;-75
2022/08/24 03:23:48;;;;;;;11.10;3.70;;;;;;;19.99;48.29;99916.47;1779580;80;21123;-75
2022/08/24 03:26:15;;;;;;;7.97;3.62;;;;;;;19.98;48.23;99917.91;1815209;78;21037;-75
2022/08/24 03:28:42;;;;;;;13.22;3.98;;;;;;;19.97;48.17;99915.72;1814853;79;20994;-75
2022/08/24 03:31:09;;;;;;;9.15;3.47;;;;;;;19.95;48.04;99917.62;1815309;79;21118;-74
2022/08/24 03:33:35;;;;;;;9.73;3.80;;;;;;;19.94;48.00;99912.38;1815067;79;21069;-75
2022/08/24 03:36:03;;;;;;;12.07;3.77;;;;;;;19.93;48.00;99911.53;1815460;79;21157;-75
2022/08/24 03:38:30;;;;;;;7.92;3.42;;;;;;;19.91;48.08;99920.13;1817123;78;21039;-75
2022/08/24 03:40:57;;;;;;;9.85;3.90;;;;;;;19.91;47.95;99922.80;1818125;78;21114;-75
2022/08/24 03:46:10;;;;;;;6.17;3.30;;;;;;;19.92;47.70;99927.20;1818405;78;20995;-75
2022/08/24 03:48:39;;;;;;;5.62;3.17;;;;;;;19.93;47.65;99927.55;1818556;78;22023;-75
2022/08/24 03:51:08;;;;;;;6.50;3.60;;;;;;;19.94;47.83;99931.07;1818248;78;21089;-76
2022/08/24 03:53:36;;;;;;;6.62;3.35;;;;;;;19.92;47.76;99928.53;1789559;78;21600;-75
2022/08/24 03:56:04;;;;;;;6.50;3.50;;;;;;;19.93;47.62;99928.05;1818564;78;21474;-76
2022/08/24 03:58:30;;;;;;;4.80;3.22;;;;;;;19.94;47.50;99933.74;1818214;78;21007;-75
2022/08/24 04:00:57;;;;;;;14.18;3.95;;;;;;;19.94;47.49;99935.95;1818702;78;21086;-75
2022/08/24 04:03:23;;;;;;;6.70;3.35;;;;;;;19.97;47.27;99934.42;1818316;78;21133;-74
2022/08/24 04:05:51;;;;;;;7.85;3.40;;;;;;;19.98;47.39;99930.77;1807413;78;21094;-75
2022/08/24 04:08:19;;;;;;;7.10;3.08;;;;;;;19.99;47.31;99928.48;1779223;80;20991;-76
2022/08/24 04:10:47;;;;;;;5.90;3.20;;;;;;;20.02;47.16;99934.97;1726895;83;21046;-75
2022/08/24 04:13:16;;;;;;;10.25;3.12;;;;;;;20.04;47.07;99932.19;1704178;83;22674;-75
2022/08/24 04:15:43;;;;;;;3.37;2.90;;;;;;;20.06;46.89;99933.43;1726604;83;21070;-75
2022/08/24 04:18:11;;;;;;;5.45;2.75;;;;;;;20.07;47.00;99925.77;1726529;82;21035;-75
2022/08/24 04:20:40;;;;;;;6.80;2.80;;;;;;;20.08;47.02;99924.83;1726563;83;21075;-75
2022/08/24 04:23:10;;;;;;;10.30;3.00;;;;;;;20.11;47.00;99925.96;1726690;82;21004;-75
2022/08/24 04:25:42;;;;;;;13.13;3.10;;;;;;;20.13;46.71;99928.04;1726672;81;21816;-75
2022/08/24 04:28:10;;;;;;;6.45;3.05;;;;;;;20.15;46.50;99930.13;1726784;81;21541;-75
2022/08/24 04:30:41;;;;;;;7.25;3.10;;;;;;;20.16;46.56;99925.16;1726978;81;21055;-76
2022/08/24 04:33:11;;;;;;;6.85;3.50;;;;;;;20.19;46.67;99933.82;1726647;82;21113;-75
2022/08/24 04:35:46;;;;;;;8.08;3.10;;;;;;;20.23;46.57;99931.80;1726906;83;21082;-76
2022/08/24 04:38:14;;;;;;;14.97;3.33;;;;;;;20.28;46.39;99933.67;1737976;81;21162;-75
2022/08/24 04:40:44;;;;;;;10.28;2.75;;;;;;;20.33;46.26;99939.55;1761919;81;21328;-75
2022/08/24 04:43:11;;;;;;;7.28;2.67;;;;;;;20.37;45.99;99933.02;1762079;81;21070;-75
2022/08/24 04:45:40;;;;;;;6.70;2.60;;;;;;;20.39;45.89;99929.78;1762089;81;21062;-75
2022/08/24 04:48:07;;;;;;;8.23;3.08;;;;;;;20.44;45.77;99929.44;1762419;81;21640;-75
2022/08/24 04:50:36;;;;;;;13.48;2.95;;;;;;;20.48;45.58;99922.09;1762152;81;21561;-75
2022/08/24 04:53:04;;;;;;;3.25;2.58;;;;;;;20.53;45.56;99926.64;1761806;81;21082;-75
2022/08/24 04:55:31;;;;;;;7.03;2.83;;;;;;;20.57;45.68;99923.63;1761915;81;21966;-76
2022/08/24 04:57:58;;;;;;;3.55;2.65;;;;;;;20.64;45.57;99925.42;1762026;81;21081;-75
2022/08/24 05:00:25;;;;;;;4.60;3.05;;;;;;;20.70;45.47;99926.83;1762116;81;21058;-75
2022/08/24 05:02:51;;;;;;;10.38;3.15;;;;;;;20.74;45.19;99919.80;1761948;81;21572;-75
2022/08/24 05:05:18;;;;;;;8.25;2.67;;;;;;;20.79;44.77;99918.14;1762185;81;21110;-75
2022/08/24 05:07:45;;;;;;;7.83;2.95;;;;;;;20.84;44.77;99921.84;1762386;81;21219;-75
2022/08/24 05:10:12;;;;;;;5.85;2.75;;;;;;;20.90;44.97;99914.23;1762268;81;21133;-75
2022/08/24 05:12:41;;;;;;;5.62;3.00;;;;;;;20.96;44.89;99915.14;1738838;80;21018;-75
2022/08/24 05:15:09;;;;;;;8.53;3.00;;;;;;;21.02;44.50;99912.50;1719121;81;21748;-75
2022/08/24 05:17:39;;;;;;;6.95;3.30;;;;;;;21.08;44.08;99916.08;1766166;81;21114;-75
2022/08/24 05:20:08;;;;;;;9.18;3.00;;;;;;;21.15;43.96;99917.34;1766406;81;21507;-75
2022/08/24 05:22:35;;;;;;;7.75;2.55;;;;;;;21.22;44.01;99916.91;1766317;81;21463;-74
2022/08/24 05:25:03;;;;;;;7.80;2.55;;;;;;;21.27;43.38;99926.78;1766392;81;20987;-75
2022/08/24 05:27:32;;;;;;;9.38;2.87;;;;;;;21.32;43.00;99920.61;1766382;81;21695;-76
2022/08/24 05:29:58;;;;;;;9.68;2.80;;;;;;;21.38;43.13;99920.14;1736856;81;21046;-76
2022/08/24 05:32:25;;;;;;;5.75;3.05;;;;;;;21.44;42.69;99914.84;1766855;80;21125;-75
2022/08/24 05:34:52;;;;;;;8.43;3.20;;;;;;;21.49;42.13;99914.05;1766463;81;22036;-75
2022/08/24 05:37:19;;;;;;;6.47;2.90;;;;;;;21.53;41.91;99908.83;1766457;80;21010;-75
2022/08/24 05:39:47;;;;;;;4.10;2.58;;;;;;;21.60;42.10;99910.10;1756354;80;21947;-75
2022/08/24 05:42:14;;;;;;;5.05;2.80;;;;;;;21.68;42.04;99910.85;1760557;81;21489;-76
2022/08/24 05:44:42;;;;;;;8.45;3.02;;;;;;;21.75;41.44;99905.89;1760522;81;21183;-76
2022/08/24 05:47:09;;;;;;;17.07;3.87;;;;;;;21.82;41.59;99908.01;1760701;81;22123;-75
2022/08/24 05:49:36;;;;;;;8.10;2.95;;;;;;;21.88;42.02;99908.86;1760577;81;21545;-75
2022/08/24 05:52:03;;;;;;;7.30;3.00;;;;;;;21.96;41.57;99908.79;1760462;81;21232;-76
2022/08/24 05:54:29;;;;;;;6.95;2.87;;;;;;;22.03;41.61;99912.70;1760987;81;21041;-75
2022/08/24 05:57:03;;;;;;;5.37;3.15;;;;;;;22.12;41.49;99915.16;1759442;81;21505;-75
2022/08/24 05:59:26;;;;;;;10.53;3.08;;;;;;;22.20;41.05;99921.63;1760399;81;21135;-75
2022/08/24 06:01:53;;;;;;;12.07;3.08;;;;;;;22.29;40.66;99921.44;1760621;81;21008;-75
2022/08/24 06:04:21;;;;;;;7.62;3.05;;;;;;;22.35;40.78;99918.30;1739468;81;21457;-76
2022/08/24 06:06:48;;;;;;;8.40;3.17;;;;;;;22.45;40.75;99926.48;1739530;81;21014;-76
2022/08/24 06:09:15;;;;;;;7.15;2.83;;;;;;;22.50;40.17;99928.31;1760482;81;21006;-75
2022/08/24 06:11:44;;;;;;;13.03;3.42;;;;;;;22.56;40.71;99922.95;1768272;79;21091;-75
2022/08/24 06:14:14;;;;;;;7.05;3.25;;;;;;;22.62;40.42;99926.00;1772369;80;21583;-75
2022/08/24 06:16:49;;;;;;;8.48;3.02;;;;;;;22.70;40.56;99932.13;1772469;80;21107;-76
2022/08/24 06:19:17;;;;;;;5.55;3.20;;;;;;;22.79;40.78;99930.03;1772415;80;21056;-75
2022/08/24 06:21:46;;;;;;;11.08;2.83;;;;;;;22.88;40.96;99932.97;1772208;80;21555;-76
2022/08/24 06:24:14;;;;;;;5.37;3.05;;;;;;;22.96;40.97;99937.23;1772200;80;21064;-75
2022/08/24 06:29:29;;;;;;;11.88;2.87;;;;;;;23.17;40.60;99940.08;1771773;80;21200;-75
2022/08/24 06:31:57;;;;;;;9.13;3.22;;;;;;;23.28;40.45;99938.70;1772137;80;20996;-75
2022/08/24 06:34:24;;;;;;;7.25;3.37;;;;;;;23.36;40.72;99946.99;1772669;80;21048;-76
2022/08/24 06:36:52;;;;;;;11.95;2.95;;;;;;;23.47;40.72;99947.95;1771995;80;21135;-76
2022/08/24 06:39:21;;;;;;;14.45;3.40;;;;;;;23.55;40.45;99946.36;1777074;80;21467;-75
2022/08/24 06:41:49;;;;;;;7.12;2.85;;;;;;;23.65;40.42;99948.27;1775586;80;22254;-76
2022/08/24 06:44:17;;;;;;;9.00;3.15;;;;;;;23.71;39.43;99951.31;1780463;80;20942;-75
2022/08/24 06:46:48;;;;;;;13.30;2.90;;;;;;;23.80;39.28;99954.22;1780433;80;21067;-75
2022/08/24 06:49:15;;;;;;;13.28;2.98;;;;;;;23.86;39.44;99952.41;1788519;80;21681;-75
2022/08/24 06:51:42;;;;;;;7.10;2.60;;;;;;;23.91;39.40;99957.75;1788380;80;21055;-75
2022/08/24 06:54:09;;;;;;;9.13;2.58;;;;;;;23.98;39.50;99956.75;1788440;80;21136;-75
2022/08/24 06:56:37;;;;;;;13.80;2.83;;;;;;;24.05;39.15;99953.89;1786087;79;21079;-76
2022/08/24 06:59:05;;;;;;;15.45;3.20;;;;;;;24.10;39.40;99958.39;1788416;80;21126;-75
2022/08/24 07:01:33;;;;;;;4.50;2.33;;;;;;;24.18;40.03;99963.63;1788794;80;21059;-75
2022/08/24 07:04:00;;;;;;;9.90;2.58;;;;;;;24.26;39.81;99965.19;1789056;80;21471;-76
2022/08/24 07:06:36;;;;;;;12.40;2.92;;;;;;;24.32;39.61;99957.92;1782165;80;21179;-75
2022/08/24 07:09:04;;;;;;;8.43;2.90;;;;;;;24.39;39.56;99956.91;1802928;78;22384;-75
2022/08/24 07:11:32;;;;;;;7.33;2.77;;;;;;;24.44;39.15;99962.27;1813115;79;21745;-75
2022/08/24 07:14:00;;;;;;;5.00;2.65;;;;;;;24.51;38.73;99963.07;1812653;79;21090;-75
2022/08/24 07:16:26;;;;;;;11.03;3.05;;;;;;;24.56;39.31;99960.40;1813065;79;21034;-75
2022/08/24 07:18:55;;;;;;;9.18;3.10;;;;;;;24.63;39.67;99955.34;1813143;79;21128;-75
2022/08/24 07:21:21;;;;;;;11.63;2.80;;;;;;;24.73;39.58;99964.31;1813259;79;21047;-75
2022/08/24 07:23:52;;;;;;;8.68;2.60;;;;;;;24.82;39.40;99959.96;1812988;78;21585;-75
2022/08/24 07:26:21;;;;;;;13.80;2.95;;;;;;;24.90;39.58;99960.15;1786715;79;21116;-76
2022/08/24 07:28:50;;;;;;;11.93;3.05;;;;;;;25.01;39.77;99965.42;1813130;79;21026;-76
2022/08/24 07:31:17;;;;;;;14.30;3.12;;;;;;;25.14;39.29;99967.89;1786381;79;21179;-75
2022/08/24 07:33:45;;;;;;;10.58;3.05;;;;;;;25.25;39.13;99960.70;1812056;79;21543;-75
2022/08/24 07:36:13;;;;;;;7.80;2.52;;;;;;;25.33;39.24;99963.59;1813038;79;21003;-75
2022/08/24 07:38:40;;;;;;;13.25;3.17;;;;;;;25.43;38.99;99969.02;1812520;79;21122;-76
2022/08/24 07:41:07;;;;;;;6.60;3.20;;;;;;;25.50;38.38;99972.38;1810065;79;20968;-75
2022/08/24 07:43:34;;;;;;;17.15;2.85;;;;;;;25.58;38.61;99973.02;1809969;79;21554;-75
2022/08/24 07:46:00;;;;;;;20.82;3.87;;;;;;;25.68;38.43;99972.53;1809818;79;21083;-76
2022/08/24 07:48:27;;;;;;;15.58;3.02;;;;;;;25.79;38.32;99975.61;1809851;79;21050;-76
2022/08/24 07:50:57;;;;;;;8.40;2.72;;;;;;;25.88;37.89;99973.41;1810179;79;21011;-75
2022/08/24 07:53:24;;;;;;;17.52;3.58;;;;;;;25.96;37.47;99966.01;1810430;79;21035;-75
2022/08/24 07:55:54;;;;;;;17.10;3.30;;;;;;;26.04;37.46;99969.33;1809968;79;21194;-75
2022/08/24 07:58:20;;;;;;;20.97;3.92;;;;;;;26.14;37.16;99963.44;1809939;79;21604;-75
2022/08/24 08:00:48;;;;;;;24.45;3.85;;;;;;;26.24;36.90;99956.22;1809988;79;22011;-75
2022/08/24 08:03:14;;;;;;;17.23;4.08;;;;;;;26.38;37.56;99962.13;1809888;79;21514;-75
2022/08/24 08:05:42;;;;;;;19.92;4.35;;;;;;;26.50;36.87;99960.99;1810248;79;21019;-75
2022/08/24 08:08:10;;;;;;;24.52;3.77;;;;;;;26.62;36.67;99959.82;1809553;79;21737;-75
2022/08/24 08:10:39;;;;;;;20.08;4.12;;;;;;;26.74;36.15;99961.04;1809832;79;21328;-75
2022/08/24 08:13:06;;;;;;;18.57;3.30;;;;;;;26.83;36.30;99968.24;1811132;78;21009;-75
2022/08/24 08:15:32;;;;;;;18.98;3.83;;;;;;;26.94;36.13;99966.72;1815286;78;20996;-76
2022/08/24 08:18:01;;;;;;;22.10;3.98;;;;;;;27.04;36.09;99967.53;1814800;78;21617;-75
2022/08/24 08:20:28;;;;;;;31.42;4.28;;;;;;;27.17;36.18;99965.01;1815022;78;21119;-76
2022/08/24 08:25:53;;;;;;;23.22;3.95;;;;;;;27.40;35.07;99964.98;1777129;79;21073;-75
2022/08/24 08:28:21;;;;;;;18.55;3.85;;;;;;;27.53;34.95;99966.47;1814499;79;21483;-75
2022/08/24 08:30:48;;;;;;;22.13;3.45;;;;;;;27.63;34.92;99971.30;1815238;78;21024;-75
2022/08/24 08:33:15;;;;;;;16.48;3.62;;;;;;;27.75;34.30;99979.54;1815449;79;21036;-75
2022/08/24 08:35:43;;;;;;;33.10;3.52;;;;;;;27.84;34.28;99974.22;1815028;79;21174;-75
2022/08/24 08:38:10;;;;;;;16.15;3.70;;;;;;;27.95;34.17;99974.88;1814978;78;21608;-75
2022/08/24 08:41:13;;;;;;;27.55;3.62;;;;;;;28.06;33.28;99971.10;1815050;79;20992;-75
2022/08/24 08:44:04;;;;;;;12.70;3.00;;;;;;;28.14;33.47;99971.18;1814249;79;21110;-75
2022/08/24 08:47:07;;;;;;;17.12;2.95;;;;;;;28.28;33.42;99974.34;1815070;79;21142;-76
2022/08/24 08:50:14;;;;;;;30.35;3.40;;;;;;;28.39;33.00;99964.59;1815105;79;21000;-76
2022/08/24 08:53:20;;;;;;;20.73;3.30;;;;;;;28.53;33.76;99968.09;1815611;78;21130;-76
2022/08/24 08:56:08;;;;;;;23.62;3.37;;;;;;;28.71;33.62;99968.09;1815212;79;21095;-75
2022/08/24 08:59:16;;;;;;;13.50;2.45;;;;;;;28.87;32.72;99956.48;1815387;79;21557;-75
2022/08/24 09:02:17;;;;;;;15.20;3.52;;;;;;;28.99;31.88;99959.77;1814494;79;21534;-75
2022/08/24 09:05:27;;;;;;;19.12;3.05;;;;;;;29.08;30.76;99964.23;1814523;79;20972;-74
2022/08/24 09:08:16;;;;;;;17.05;3.30;;;;;;;29.15;30.97;99960.84;1783679;79;21570;-75
2022/08/24 09:10:51;;;;;;;13.55;3.00;;;;;;;29.25;31.21;99959.76;1815452;79;21056;-76
2022/08/24 09:13:47;;;;;;;26.00;2.92;;;;;;;29.38;31.19;99958.44;1811744;79;21050;-77
2022/08/24 09:16:40;;;;;;;15.53;3.30;;;;;;;29.48;29.96;99956.43;1782016;80;21101;-76
2022/08/24 09:19:27;;;;;;;16.25;2.98;;;;;;;29.56;30.36;99955.10;1752946;80;20996;-76
2022/08/24 09:22:13;;;;;;;13.18;3.00;;;;;;;29.70;30.39;99956.83;1783104;80;21052;-74
2022/08/24 09:25:03;;;;;;;15.23;2.80;;;;;;;29.83;29.88;99954.52;1783446;80;21023;-75
2022/08/24 09:28:17;;;;;;;10.18;2.65;;;;;;;29.98;29.74;99960.97;1782535;80;21027;-75
2022/08/24 09:31:03;;;;;;;16.00;2.98;;;;;;;30.13;29.28;99962.50;1783281;80;21116;-75
2022/08/24 09:33:44;;;;;;;17.35;2.65;;;;;;;30.26;28.79;99962.50;1734555;80;21024;-75
2022/08/24 09:36:39;;;;;;;9.78;2.35;;;;;;;30.33;28.70;99953.52;1783019;80;21059;-75
2022/08/24 09:39:46;;;;;;;10.28;2.40;;;;;;;30.43;28.07;99953.86;1783353;79;21432;-75
2022/08/24 09:42:39;;;;;;;19.12;2.75;;;;;;;30.50;27.92;99956.25;1783223;80;21051;-75
2022/08/24 09:45:20;;;;;;;10.80;2.25;;;;;;;30.58;28.84;99954.02;1781799;80;21013;-75
2022/08/24 09:48:19;;;;;;;16.70;3.00;;;;;;;30.69;28.05;99953.66;1783361;80;21013;-75
2022/08/24 09:51:10;;;;;;;9.18;2.40;;;;;;;30.78;28.05;99955.84;1783220;80;21024;-75
2022/08/24 09:54:03;;;;;;;10.13;2.75;;;;;;;30.84;27.82;99958.71;1750191;80;21600;-76
2022/08/24 09:57:02;;;;;;;16.00;2.30;;;;;;;30.92;27.85;99944.27;1782807;80;21000;-75
2022/08/24 09:59:59;;;;;;;12.33;2.60;;;;;;;31.03;27.39;99950.69;1783265;80;21882;-75
2022/08/24 10:03:05;;;;;;;12.30;2.30;;;;;;;31.13;26.94;99951.02;1783251;80;21087;-75
2022/08/24 10:06:11;;;;;;;7.20;1.95;;;;;;;31.20;26.90;99947.91;1783113;80;21044;-76
2022/08/24 10:09:36;;;;;;;12.63;2.30;;;;;;;31.27;27.02;99944.81;1811894;78;21601;-75
2022/08/24 10:12:36;;;;;;;10.20;2.67;;;;;;;31.38;27.11;99948.51;1815432;79;21005;-75
2022/08/24 10:15:20;;;;;;;15.20;2.30;;;;;;;31.47;26.38;99950.17;1815001;78;21088;-76
2022/08/24 10:18:09;;;;;;;22.58;2.22;;;;;;;31.57;26.69;99949.12;1815221;78;21321;-75
2022/08/24 10:21:32;;;;;;;14.87;2.83;;;;;;;31.69;26.37;99946.34;1815347;79;21056;-76
2022/08/24 10:24:33;;;;;;;12.13;2.27;;;;;;;31.77;25.87;99954.42;1815199;79;21080;-76
2022/08/24 10:27:39;;;;;;;12.45;2.58;;;;;;;31.88;26.20;99952.34;1815442;79;21155;-75
2022/08/24 10:30:28;;;;;;;9.58;2.25;;;;;;;31.95;26.28;99954.66;1815271;79;21044;-75
2022/08/24 10:33:09;;;;;;;14.20;2.25;;;;;;;32.02;26.18;99955.09;1813509;79;21641;-75
2022/08/24 10:36:20;;;;;;;7.87;2.15;;;;;;;32.11;26.37;99950.98;1801620;78;21087;-75
2022/08/24 10:45:43;;;;;;;17.12;2.58;;;;;;;32.40;25.88;99952.95;1814953;79;21624;-75
2022/08/24 10:48:33;;;;;;;12.63;1.95;;;;;;;32.52;25.31;99944.65;1814687;79;20993;-75
2022/08/24 10:51:29;;;;;;;13.68;2.22;;;;;;;32.64;26.01;99952.41;1815089;79;21093;-75
2022/08/24 10:53:57;;;;;;;15.68;2.40;;;;;;;32.72;24.97;99944.98;1703675;83;21073;-75
2022/08/24 10:56:59;;;;;;;14.73;2.37;;;;;;;32.72;25.39;99940.91;1762199;80;21153;-75
2022/08/24 10:59:39;;;;;;;12.10;2.10;;;;;;;32.76;25.30;99949.54;1753824;81;21730;-75
2022/08/24 11:02:33;;;;;;;14.98;2.37;;;;;;;32.79;25.01;99934.19;1776643;80;22233;-75
2022/08/24 11:05:07;;;;;;;11.60;2.55;;;;;;;32.87;25.10;99934.09;1777103;80;21538;-75
2022/08/24 11:07:34;;;;;;;7.67;1.80;;;;;;;32.98;25.67;99927.84;1776807;80;28158;-76
2022/08/24 11:10:07;;;;;;;13.75;2.20;;;;;;;33.10;25.69;99931.77;1759729;81;21047;-76
2022/08/24 11:12:41;;;;;;;9.48;2.30;;;;;;;33.14;25.48;99931.73;1776875;80;21092;-76
2022/08/24 11:15:22;;;;;;;10.98;2.20;;;;;;;33.20;25.42;99926.89;1776836;80;21057;-76
2022/08/24 11:17:59;;;;;;;12.63;2.55;;;;;;;33.25;24.64;99927.16;1776494;80;21048;-76
2022/08/24 11:20:41;;;;;;;10.38;1.62;;;;;;;33.27;24.84;99921.02;1771270;80;21049;-75
2022/08/24 11:23:27;;;;;;;18.62;2.85;;;;;;;33.31;25.41;99925.04;1751851;80;21043;-76
2022/08/24 11:26:12;;;;;;;9.10;2.00;;;;;;;33.40;24.95;99930.38;1734365;82;21817;-76
2022/08/24 11:28:51;;;;;;;15.23;2.35;;;;;;;33.48;24.86;99915.27;1734483;82;21128;-76
2022/08/24 11:31:35;;;;;;;16.48;2.20;;;;;;;33.59;24.71;99920.23;1734402;82;21084;-76
2022/08/24 11:34:11;;;;;;;20.97;2.42;;;;;;;33.68;25.17;99914.98;1733181;82;21586;-76
2022/08/24 11:36:38;;;;;;;16.85;3.00;;;;;;;33.80;24.75;99914.48;1734784;81;21082;-75
2022/08/24 11:39:28;;;;;;;10.25;1.92;;;;;;;33.90;24.37;99914.16;1734538;82;21153;-75
2022/08/24 11:42:28;;;;;;;11.28;2.30;;;;;;;33.96;24.68;99912.85;1727072;81;21559;-75
2022/08/24 11:45:03;;;;;;;15.05;2.12;;;;;;;34.02;24.55;99915.31;1726667;83;21045;-75
2022/08/24 11:47:42;;;;;;;16.52;2.20;;;;;;;34.08;24.76;99908.20;1725570;82;21678;-75
2022/08/24 11:50:23;;;;;;;10.20;1.75;;;;;;;34.12;24.48;99906.78;1726569;83;21069;-76
2022/08/24 11:53:28;;;;;;;12.28;2.00;;;;;;;34.16;24.92;99903.97;1727153;83;21126;-76
2022/08/24 11:56:17;;;;;;;13.55;1.95;;;;;;;34.25;25.26;99896.00;1726766;83;21002;-75
2022/08/24 11:59:18;;;;;;;22.85;2.83;;;;;;;34.40;25.10;99909.03;1757450;80;21067;-75
2022/08/24 12:01:50;;;;;;;14.75;2.17;;;;;;;34.47;24.00;99902.25;1757231;81;21138;-75
2022/08/24 12:04:34;;;;;;;8.75;1.90;;;;;;;34.47;23.82;99897.31;1757346;81;21119;-76
2022/08/24 12:07:32;;;;;;;14.30;2.40;;;;;;;34.53;24.42;99893.76;1757708;80;21237;-75
2022/08/24 12:10:10;;;;;;;14.95;2.33;;;;;;;34.61;23.31;99894.97;1757143;81;21649;-75
2022/08/24 12:12:54;;;;;;;11.20;2.33;;;;;;;34.61;24.74;99900.44;1757202;80;21151;-76
2022/08/24 12:15:42;;;;;;;20.75;2.42;;;;;;;34.65;24.11;99894.91;1756410;81;21079;-75
2022/08/24 12:18:32;;;;;;;20.37;2.40;;;;;;;34.70;23.71;99893.78;1757287;80;21515;-75